Time;durP1;ratioP1;P1;durP2;ratioP2;P2;SDS_P1;SDS_P2;PMS_P1;PMS_P2;Temp;Humidity;BMP_temperature;BMP_pressure;BME280_temperature;BME280_humidity;BME280_pressure;Samples;Min_cycle;Max_cycle;Signal;HPM_P1;HPM_P2
2022/07/03 00:00:56;;;;;;;9.70;3.88;;;;;;;23.98;46.03;101023.28;4994144;28;20022;-78
2022/07/03 00:03:21;;;;;;;14.88;4.00;;;;;;;23.93;46.25;101023.03;4993522;28;20029;-78
2022/07/03 00:05:47;;;;;;;11.80;4.03;;;;;;;23.99;46.32;101024.97;4994177;28;20022;-79
2022/07/03 00:08:12;;;;;;;7.07;3.50;;;;;;;23.97;46.27;101029.84;4993677;28;20357;-78
2022/07/03 00:10:39;;;;;;;7.82;3.13;;;;;;;23.96;45.85;101020.75;4993601;28;20074;-78
2022/07/03 00:13:04;;;;;;;9.07;3.85;;;;;;;23.89;45.94;101021.75;4994078;28;20030;-79
2022/07/03 00:15:30;;;;;;;4.90;3.60;;;;;;;23.85;45.52;101024.91;4993379;28;20026;-79
2022/07/03 00:17:55;;;;;;;8.57;3.45;;;;;;;23.70;45.71;101010.44;4993885;28;20026;-79
2022/07/03 00:20:24;;;;;;;10.68;4.80;;;;;;;23.80;45.75;101010.94;4993892;28;20034;-81
2022/07/03 00:22:50;;;;;;;8.10;3.60;;;;;;;23.76;45.82;101019.75;4993909;28;20097;-80
2022/07/03 00:25:16;;;;;;;11.40;4.10;;;;;;;23.66;45.80;101009.16;4993599;28;20022;-78
2022/07/03 00:27:45;;;;;;;10.30;4.80;;;;;;;23.74;46.14;101014.47;4993734;28;20033;-79
2022/07/03 00:30:10;;;;;;;6.93;4.60;;;;;;;23.82;46.21;101008.81;4975626;28;20088;-79
2022/07/03 00:32:39;;;;;;;8.82;3.95;;;;;;;23.79;46.64;101006.47;4993211;28;20493;-79
2022/07/03 00:35:06;;;;;;;8.35;3.38;;;;;;;23.60;47.09;100987.97;4993079;28;20037;-79
2022/07/03 00:37:32;;;;;;;10.50;4.28;;;;;;;23.71;46.83;101008.53;4993147;28;20464;-80
2022/07/03 00:39:58;;;;;;;7.85;4.32;;;;;;;23.74;47.21;101010.88;4992964;28;20495;-80
2022/07/03 00:42:23;;;;;;;10.55;3.97;;;;;;;23.73;46.88;101010.03;4993211;28;20400;-80
2022/07/03 00:44:52;;;;;;;12.88;3.72;;;;;;;23.72;47.42;100994.63;4992856;28;20027;-80
2022/07/03 00:47:19;;;;;;;13.43;4.65;;;;;;;23.76;47.86;101015.13;4975271;28;20519;-80
2022/07/03 00:49:48;;;;;;;17.70;4.65;;;;;;;23.80;48.55;101010.94;4992561;28;20053;-79
2022/07/03 00:52:14;;;;;;;16.05;4.53;;;;;;;23.80;49.73;101012.81;4992852;28;20026;-78
2022/07/03 00:54:50;;;;;;;12.73;4.03;;;;;;;23.90;51.01;101007.81;4992680;28;20045;-78
2022/07/03 00:57:16;;;;;;;13.00;3.88;;;;;;;23.96;51.33;101006.16;4992500;28;20033;-79
2022/07/03 00:59:43;;;;;;;6.45;4.60;;;;;;;24.06;52.60;101009.38;4992817;28;20113;-79
2022/07/03 01:02:32;;;;;;;12.85;4.15;;;;;;;24.08;52.98;101001.78;4992966;28;20097;-79
2022/07/03 01:05:15;;;;;;;15.85;4.70;;;;;;;24.15;53.41;100999.97;4992118;28;20064;-78
2022/07/03 01:08:02;;;;;;;17.80;4.80;;;;;;;24.29;53.47;101008.06;4992866;28;20464;-79
2022/07/03 01:10:46;;;;;;;14.50;4.57;;;;;;;24.35;52.85;101007.22;4992824;28;20109;-79
2022/07/03 01:13:27;;;;;;;24.30;4.88;;;;;;;24.35;53.20;101003.63;4992559;28;20026;-80
2022/07/03 01:16:07;;;;;;;18.23;5.32;;;;;;;24.40;54.45;101005.78;4975264;28;20042;-78
2022/07/03 01:18:40;;;;;;;14.50;5.57;;;;;;;24.44;54.60;101001.53;4992901;28;20030;-78
2022/07/03 01:21:10;;;;;;;11.40;5.13;;;;;;;24.39;56.43;100977.44;4992507;28;20476;-80
2022/07/03 01:23:56;;;;;;;13.23;6.13;;;;;;;24.50;60.36;101001.56;4992633;28;20161;-78
2022/07/03 01:26:26;;;;;;;9.50;5.88;;;;;;;24.47;61.11;100992.88;4992550;28;20400;-79
2022/07/03 01:28:52;;;;;;;10.60;5.50;;;;;;;24.51;61.57;100997.78;4992530;28;20037;-79
2022/07/03 01:31:22;;;;;;;16.50;6.90;;;;;;;24.52;65.28;100990.38;4992862;28;20407;-78
2022/07/03 01:33:51;;;;;;;23.58;6.97;;;;;;;24.57;65.06;100996.94;4993067;28;20069;-80
2022/07/03 01:36:21;;;;;;;15.10;6.93;;;;;;;24.62;67.25;100994.41;4993957;28;20089;-78
2022/07/03 01:38:49;;;;;;;17.48;6.82;;;;;;;24.46;68.64;100961.81;4993760;28;20026;-82
2022/07/03 01:41:15;;;;;;;19.30;7.00;;;;;;;24.69;68.34;100994.44;4992482;28;20110;-79
2022/07/03 01:43:50;;;;;;;19.65;8.55;;;;;;;24.73;68.08;100991.06;4992350;28;20129;-79
2022/07/03 01:46:18;;;;;;;15.13;6.78;;;;;;;24.73;69.35;100981.97;4992231;28;20041;-79
2022/07/03 01:48:45;;;;;;;19.30;7.13;;;;;;;24.77;69.89;100989.59;4972035;28;20055;-80
2022/07/03 01:51:15;;;;;;;20.10;8.55;;;;;;;24.81;70.11;100990.06;4973463;28;20440;-82
2022/07/03 01:53:47;;;;;;;15.70;7.88;;;;;;;24.82;70.14;100992.59;4973053;28;20029;-79
2022/07/03 01:56:12;;;;;;;13.90;6.32;;;;;;;24.79;68.18;100983.88;4973101;28;20480;-81
2022/07/03 01:58:38;;;;;;;15.32;7.63;;;;;;;24.76;65.06;100978.81;4973175;28;20030;-82
2022/07/03 02:01:03;;;;;;;21.83;9.32;;;;;;;24.75;61.58;100991.72;4973644;28;20114;-79
2022/07/03 02:03:33;;;;;;;19.42;8.25;;;;;;;24.64;61.16;100989.56;4972584;28;20105;-77
2022/07/03 02:06:11;;;;;;;23.00;9.27;;;;;;;24.53;60.76;100973.66;4972349;28;20045;-78
2022/07/03 02:09:02;;;;;;;20.10;7.95;;;;;;;24.46;61.42;100989.31;4972736;28;20035;-78
2022/07/03 02:11:36;;;;;;;21.05;9.05;;;;;;;24.42;61.08;100987.16;4976157;28;20478;-78
2022/07/03 02:14:17;;;;;;;21.13;9.02;;;;;;;24.36;61.56;100988.84;4976334;28;20111;-78
2022/07/03 02:17:16;;;;;;;22.85;8.40;;;;;;;24.37;63.09;100987.78;4976196;28;20030;-82
2022/07/03 02:19:49;;;;;;;15.20;7.72;;;;;;;24.35;65.25;100987.13;4976053;28;20477;-79
2022/07/03 02:22:19;;;;;;;16.75;8.82;;;;;;;24.37;67.22;100976.78;4976206;28;20111;-79
2022/07/03 02:24:46;;;;;;;37.95;10.65;;;;;;;24.39;67.37;100982.94;4976312;28;20027;-77
2022/07/03 02:27:25;;;;;;;11.15;7.80;;;;;;;24.28;68.88;100961.50;4975805;28;20026;-80
2022/07/03 02:30:04;;;;;;;15.90;8.05;;;;;;;24.54;71.70;100991.88;4975764;28;20035;-78
2022/07/03 02:32:35;;;;;;;35.05;10.50;;;;;;;24.52;73.32;100982.97;4975747;28;20468;-78
2022/07/03 02:35:11;;;;;;;20.40;8.53;;;;;;;24.48;73.59;100976.19;4976112;28;20031;-79
2022/07/03 02:38:03;;;;;;;18.83;9.48;;;;;;;24.62;74.51;100977.91;4975907;28;20037;-79
2022/07/03 02:40:47;;;;;;;13.17;7.77;;;;;;;24.64;75.26;100984.06;4972522;28;20070;-79
2022/07/03 02:43:57;;;;;;;12.43;8.60;;;;;;;24.63;76.08;100989.75;4975945;28;20074;-79
2022/07/03 02:49:13;;;;;;;16.50;8.23;;;;;;;24.67;77.38;100986.41;4990274;28;20065;-78
2022/07/03 02:51:44;;;;;;;15.38;10.43;;;;;;;24.70;77.81;100991.50;4995130;28;20041;-78
2022/07/03 02:54:13;;;;;;;17.08;9.07;;;;;;;24.68;75.83;100995.47;4995036;28;20037;-78
2022/07/03 02:57:22;;;;;;;14.98;9.32;;;;;;;24.73;74.70;100996.59;4994983;28;20472;-78
2022/07/03 03:00:00;;;;;;;24.15;10.00;;;;;;;24.77;75.25;100996.97;4975133;28;20041;-78
2022/07/03 03:02:55;;;;;;;19.10;8.68;;;;;;;24.86;76.02;100998.53;4994650;28;20093;-78
2022/07/03 03:05:28;;;;;;;17.58;9.10;;;;;;;24.82;77.69;100997.25;4994839;28;20081;-78
2022/07/03 03:08:16;;;;;;;17.65;9.88;;;;;;;24.79;78.20;101001.25;4994667;28;20026;-78
2022/07/03 03:10:44;;;;;;;14.57;9.05;;;;;;;24.73;78.59;100996.59;4994901;28;20030;-83
2022/07/03 03:13:12;;;;;;;15.82;9.20;;;;;;;24.79;78.67;100993.00;4982810;28;20029;-82
2022/07/03 03:15:43;;;;;;;16.77;10.45;;;;;;;24.85;78.64;100994.94;4983921;28;20029;-81
2022/07/03 03:18:12;;;;;;;18.05;9.40;;;;;;;24.86;78.29;100996.63;5000912;28;20061;-81
2022/07/03 03:20:39;;;;;;;25.88;10.57;;;;;;;24.92;78.09;100996.84;4998592;28;20896;-81
2022/07/03 03:23:17;;;;;;;28.52;10.95;;;;;;;24.86;78.04;100996.63;4995102;28;20488;-80
2022/07/03 03:25:43;;;;;;;29.02;10.43;;;;;;;24.85;78.09;100994.94;4995448;28;20019;-81
2022/07/03 03:28:08;;;;;;;35.50;12.50;;;;;;;24.87;76.36;101000.22;4995373;28;20030;-81
2022/07/03 03:30:36;;;;;;;29.35;11.40;;;;;;;24.82;74.03;101006.38;4995400;28;20026;-81
2022/07/03 03:33:02;;;;;;;40.05;12.68;;;;;;;24.67;70.81;100991.91;4995231;28;20034;-81
2022/07/03 03:35:28;;;;;;;32.25;12.80;;;;;;;24.61;69.45;100995.50;4994959;28;20554;-82
2022/07/03 03:37:53;;;;;;;31.00;13.57;;;;;;;24.45;66.64;101015.09;4995014;28;20030;-81
2022/07/03 03:40:19;;;;;;;31.23;13.45;;;;;;;24.32;66.18;101015.03;4994897;28;20022;-81
2022/07/03 03:42:44;;;;;;;35.83;12.68;;;;;;;24.16;66.77;101007.13;4993682;28;20026;-74
2022/07/03 03:45:10;;;;;;;28.13;12.52;;;;;;;24.15;67.48;101016.44;4993631;28;20026;-74
2022/07/03 03:47:36;;;;;;;19.25;13.05;;;;;;;24.03;68.02;101015.28;4993507;28;20388;-75
2022/07/03 03:50:02;;;;;;;34.10;13.30;;;;;;;24.00;68.51;101015.69;4993364;28;20432;-75
2022/07/03 03:52:29;;;;;;;39.15;12.35;;;;;;;23.94;68.74;101000.03;4993693;28;20030;-75
2022/07/03 03:54:54;;;;;;;40.90;12.90;;;;;;;24.04;69.05;101001.34;4994862;28;20044;-73
2022/07/03 03:57:22;;;;;;;34.17;12.88;;;;;;;24.10;69.41;101017.00;4993827;28;20469;-74
2022/07/03 03:59:48;;;;;;;27.25;12.65;;;;;;;23.98;70.11;100995.78;4993911;28;20512;-73
2022/07/03 04:02:15;;;;;;;26.10;11.90;;;;;;;24.12;70.72;101009.47;4993557;28;20115;-74
2022/07/03 04:04:40;;;;;;;23.15;12.55;;;;;;;24.16;70.90;101005.22;4993467;28;20023;-75
2022/07/03 04:07:06;;;;;;;44.95;14.18;;;;;;;24.22;69.59;101020.06;4993480;28;20057;-76
2022/07/03 04:09:32;;;;;;;49.90;14.05;;;;;;;24.23;68.77;101019.00;4994048;28;20467;-79
2022/07/03 04:11:57;;;;;;;41.20;13.73;;;;;;;24.19;68.78;101010.31;4993642;28;20041;-78
2022/07/03 04:14:24;;;;;;;25.30;12.93;;;;;;;24.03;68.61;100998.81;4993679;28;20022;-79
2022/07/03 04:16:49;;;;;;;26.08;14.40;;;;;;;24.07;68.40;101011.06;4993462;28;20484;-77
2022/07/03 04:19:15;;;;;;;42.10;13.65;;;;;;;24.12;68.25;101022.34;4993511;28;20026;-82
2022/07/03 04:21:41;;;;;;;19.83;12.02;;;;;;;24.09;67.87;101014.47;4993629;28;20480;-79
2022/07/03 04:24:06;;;;;;;26.63;12.70;;;;;;;24.10;67.81;101005.16;4976046;28;20018;-77
2022/07/03 04:26:32;;;;;;;21.10;11.90;;;;;;;24.21;67.68;101012.88;4993735;28;20022;-78
2022/07/03 04:28:58;;;;;;;31.05;13.60;;;;;;;24.30;67.54;101017.16;4993503;28;20476;-79
2022/07/03 04:31:23;;;;;;;30.90;14.23;;;;;;;24.28;67.55;101014.59;4993427;28;20026;-77
2022/07/03 04:33:48;;;;;;;38.90;12.50;;;;;;;24.34;67.28;101023.94;4993240;28;20033;-77
2022/07/03 04:36:15;;;;;;;39.08;14.18;;;;;;;24.43;66.59;101025.47;4993905;28;20096;-76
2022/07/03 04:38:40;;;;;;;25.73;12.88;;;;;;;24.43;66.46;101017.22;4976075;28;20448;-78
2022/07/03 04:41:05;;;;;;;27.00;13.30;;;;;;;24.54;66.61;101033.13;4993235;28;20054;-81
2022/07/03 04:43:31;;;;;;;24.83;13.38;;;;;;;24.58;66.19;101026.16;4999559;28;20033;-82
2022/07/03 04:45:56;;;;;;;24.80;14.15;;;;;;;24.64;66.26;101035.47;5001404;28;20046;-78
2022/07/03 04:48:22;;;;;;;33.35;14.52;;;;;;;24.71;65.98;101037.19;4993699;28;20041;-76
2022/07/03 04:50:47;;;;;;;31.45;14.10;;;;;;;24.77;66.29;101021.75;4997889;28;20023;-81
2022/07/03 04:53:13;;;;;;;34.70;14.80;;;;;;;24.71;66.00;101025.31;4993680;28;20041;-81
2022/07/03 04:55:38;;;;;;;41.42;16.05;;;;;;;24.78;65.89;101027.06;4993565;28;20027;-79
2022/07/03 04:58:04;;;;;;;27.75;15.45;;;;;;;24.76;66.11;101020.94;4994172;28;20034;-82
2022/07/03 05:00:29;;;;;;;26.38;16.17;;;;;;;24.80;65.88;101013.06;4993112;28;20026;-82
2022/07/03 05:02:55;;;;;;;33.47;17.17;;;;;;;24.96;65.85;101034.75;4999641;28;20527;-82
2022/07/03 05:05:21;;;;;;;30.42;18.50;;;;;;;25.01;65.42;101031.38;5005245;28;20042;-87
2022/07/03 05:07:46;;;;;;;34.03;16.88;;;;;;;25.11;65.15;101029.91;4992287;28;20091;-77
2022/07/03 05:10:12;;;;;;;44.72;16.23;;;;;;;25.21;65.06;101029.50;4992766;28;20514;-79
2022/07/03 05:12:37;;;;;;;27.17;14.63;;;;;;;25.26;65.32;101024.19;4992346;28;20026;-78
2022/07/03 05:15:03;;;;;;;24.42;10.60;;;;;;;25.32;67.06;101023.34;4991754;28;20038;-77
2022/07/03 05:17:28;;;;;;;14.55;10.48;;;;;;;25.35;67.41;101022.94;4991759;28;20068;-76
2022/07/03 05:22:38;;;;;;;29.65;12.00;;;;;;;25.44;66.86;101033.53;4992000;28;20500;-77
2022/07/03 05:25:04;;;;;;;19.17;10.30;;;;;;;25.52;66.61;101026.16;4993076;28;20022;-82
2022/07/03 05:27:30;;;;;;;20.50;10.63;;;;;;;25.56;66.51;101035.69;4992588;28;20524;-81
2022/07/03 05:29:55;;;;;;;19.85;9.48;;;;;;;25.70;66.33;101034.59;4991687;28;20080;-83
2022/07/03 05:32:21;;;;;;;15.95;7.32;;;;;;;25.67;66.38;101032.28;4991573;28;20042;-81
2022/07/03 05:34:46;;;;;;;13.75;8.27;;;;;;;25.75;65.95;101041.16;4991399;28;20034;-81
2022/07/03 05:37:12;;;;;;;8.65;4.07;;;;;;;25.83;62.82;101043.72;4992141;28;20033;-81
2022/07/03 05:39:37;;;;;;;8.02;4.53;;;;;;;25.84;60.29;101044.56;4992177;28;20030;-80
2022/07/03 05:42:05;;;;;;;14.68;5.10;;;;;;;25.88;61.41;101043.06;4992058;28;20041;-81
2022/07/03 05:44:30;;;;;;;15.40;4.43;;;;;;;25.91;62.14;101037.97;4992478;28;20075;-80
2022/07/03 05:46:56;;;;;;;8.95;5.10;;;;;;;26.05;61.82;101040.72;4995246;28;20033;-81
2022/07/03 05:49:21;;;;;;;17.65;4.65;;;;;;;26.12;58.54;101047.03;4995187;28;20057;-76
2022/07/03 05:51:46;;;;;;;11.50;4.50;;;;;;;26.19;59.88;101056.19;4995617;28;20353;-76
2022/07/03 05:54:12;;;;;;;8.88;4.90;;;;;;;26.17;59.56;101044.53;4995481;28;20461;-75
2022/07/03 05:56:37;;;;;;;15.05;4.60;;;;;;;26.24;60.95;101050.84;4995230;28;20503;-75
2022/07/03 05:59:03;;;;;;;14.90;5.10;;;;;;;26.33;60.71;101055.06;4995418;28;20026;-77
2022/07/03 06:01:29;;;;;;;11.10;4.95;;;;;;;26.29;60.54;101043.66;4995407;28;20030;-77
2022/07/03 06:03:54;;;;;;;11.27;4.95;;;;;;;26.39;61.58;101065.25;4977663;28;20044;-76
2022/07/03 06:06:19;;;;;;;11.23;5.07;;;;;;;26.41;63.45;101052.94;4994924;28;20026;-78
2022/07/03 06:08:45;;;;;;;9.30;4.60;;;;;;;26.46;62.66;101047.59;4995135;28;20034;-77
2022/07/03 06:11:10;;;;;;;7.07;4.05;;;;;;;26.46;60.57;101060.53;4995458;28;20117;-77
2022/07/03 06:13:36;;;;;;;10.15;5.47;;;;;;;26.49;61.47;101062.88;4995593;28;20030;-76
2022/07/03 06:16:01;;;;;;;9.57;4.68;;;;;;;26.47;58.19;101062.25;4995871;28;20019;-74
2022/07/03 06:18:27;;;;;;;6.72;4.18;;;;;;;26.57;58.49;101068.16;4995326;28;20026;-77
2022/07/03 06:20:53;;;;;;;12.30;3.53;;;;;;;26.56;55.40;101066.44;4995132;28;20049;-75
2022/07/03 06:23:18;;;;;;;6.13;3.22;;;;;;;26.63;54.00;101072.81;4997854;28;20033;-83
2022/07/03 06:25:44;;;;;;;4.53;3.28;;;;;;;26.66;55.54;101066.84;4997921;28;20022;-84
2022/07/03 06:28:09;;;;;;;12.30;3.45;;;;;;;26.66;52.94;101071.50;4994787;28;20033;-81
2022/07/03 06:30:35;;;;;;;5.90;3.38;;;;;;;26.63;51.63;101064.53;4995921;28;20033;-81
2022/07/03 06:33:00;;;;;;;6.05;3.08;;;;;;;26.70;53.91;101073.59;4996398;28;20030;-86
2022/07/03 06:35:25;;;;;;;10.57;3.92;;;;;;;26.81;55.09;101072.97;4996343;28;20554;-82
2022/07/03 06:37:51;;;;;;;5.95;3.63;;;;;;;26.84;56.46;101077.19;5002110;28;20478;-83
2022/07/03 06:40:17;;;;;;;14.45;4.03;;;;;;;26.83;56.44;101073.56;5015080;28;20026;-83
2022/07/03 06:42:42;;;;;;;18.08;4.00;;;;;;;26.88;55.80;101067.41;5014687;28;20038;-82
2022/07/03 06:45:08;;;;;;;11.40;3.45;;;;;;;26.90;52.60;101068.03;5015109;28;20026;-80
2022/07/03 06:47:38;;;;;;;7.47;3.47;;;;;;;26.95;53.61;101077.34;5011021;28;20022;-79
2022/07/03 06:50:04;;;;;;;8.23;3.10;;;;;;;26.95;52.35;101073.72;4996357;28;20053;-80
2022/07/03 06:52:29;;;;;;;6.22;2.83;;;;;;;27.00;52.42;101079.44;4996851;28;20065;-82
2022/07/03 06:54:55;;;;;;;10.13;3.63;;;;;;;27.03;53.52;101073.47;4995719;28;20022;-82
2022/07/03 06:57:20;;;;;;;9.10;2.90;;;;;;;27.09;52.40;101071.75;4996055;28;20081;-82
2022/07/03 06:59:47;;;;;;;11.18;3.20;;;;;;;27.17;51.98;101079.75;4978040;28;20404;-80
2022/07/03 07:02:13;;;;;;;7.32;3.15;;;;;;;27.15;52.12;101080.00;4995727;28;20384;-82
2022/07/03 07:04:39;;;;;;;6.70;3.22;;;;;;;27.17;52.65;101079.75;4997016;28;20022;-85
2022/07/03 07:07:04;;;;;;;4.88;2.88;;;;;;;27.11;52.04;101078.72;4995628;28;20023;-86
2022/07/03 07:09:30;;;;;;;9.02;3.47;;;;;;;27.09;51.22;101080.88;4995197;28;20018;-85
2022/07/03 07:11:55;;;;;;;11.15;4.00;;;;;;;27.07;52.47;101074.72;4995165;28;20022;-77
2022/07/03 07:14:21;;;;;;;7.15;3.00;;;;;;;27.08;55.08;101062.59;4994721;28;20027;-78
2022/07/03 07:16:46;;;;;;;2.72;2.47;;;;;;;27.14;54.42;101078.28;4994467;28;20113;-79
2022/07/03 07:19:12;;;;;;;4.18;2.95;;;;;;;27.24;54.32;101066.75;4994772;28;20022;-78
2022/07/03 07:21:37;;;;;;;4.40;2.75;;;;;;;27.29;53.96;101077.97;4994796;28;20031;-77
2022/07/03 07:24:03;;;;;;;8.50;3.25;;;;;;;27.34;53.62;101081.75;4994371;28;20037;-77
2022/07/03 07:26:28;;;;;;;11.95;3.53;;;;;;;27.39;53.82;101072.81;4994234;28;20042;-76
2022/07/03 07:28:54;;;;;;;14.25;3.88;;;;;;;27.44;51.83;101075.75;4993119;28;20031;-76
2022/07/03 07:31:19;;;;;;;8.57;3.15;;;;;;;27.51;51.87;101065.50;4992720;28;20038;-77
2022/07/03 07:33:45;;;;;;;8.30;3.85;;;;;;;27.62;53.02;101075.81;4992721;28;20053;-77
2022/07/03 07:36:10;;;;;;;6.28;3.10;;;;;;;27.63;49.22;101069.25;4975190;28;20042;-77
2022/07/03 07:38:36;;;;;;;16.40;3.72;;;;;;;27.66;47.02;101079.84;4992665;28;20058;-79
2022/07/03 07:41:01;;;;;;;9.35;3.10;;;;;;;27.71;48.42;101080.00;4992405;28;20117;-78
2022/07/03 07:43:27;;;;;;;8.43;2.72;;;;;;;27.71;49.05;101084.69;4993558;28;20042;-79
2022/07/03 07:45:52;;;;;;;11.57;2.47;;;;;;;27.69;48.11;101082.16;4994386;28;20041;-78
2022/07/03 07:48:18;;;;;;;11.80;2.67;;;;;;;27.72;49.92;101078.94;4996953;28;20038;-78
2022/07/03 07:50:44;;;;;;;10.70;2.58;;;;;;;27.73;49.31;101079.78;4995831;28;20030;-78
2022/07/03 07:53:10;;;;;;;6.00;2.95;;;;;;;27.82;49.74;101087.56;4996652;28;20034;-77
2022/07/03 07:55:35;;;;;;;10.15;3.13;;;;;;;27.84;49.32;101081.81;4994494;28;20117;-76
2022/07/03 07:58:01;;;;;;;8.20;2.67;;;;;;;27.87;50.16;101093.25;4993262;28;20081;-77
2022/07/03 08:00:26;;;;;;;7.00;2.50;;;;;;;27.96;50.54;101083.59;4993194;28;20034;-76
2022/07/03 08:05:36;;;;;;;20.10;12.75;;;;;;;28.07;52.92;101090.34;4993050;28;20518;-78
2022/07/03 08:08:09;;;;;;;6.70;3.70;;;;;;;28.09;52.54;101089.03;4992029;28;20057;-77
2022/07/03 08:10:38;;;;;;;14.00;3.22;;;;;;;28.00;52.82;101087.63;4993387;28;20034;-76
2022/07/03 08:13:04;;;;;;;11.18;3.78;;;;;;;28.02;53.72;101081.84;4993028;28;20038;-77
2022/07/03 08:15:30;;;;;;;11.27;3.40;;;;;;;28.07;54.63;101087.59;4992970;28;20034;-76
2022/07/03 08:17:55;;;;;;;6.32;3.05;;;;;;;28.06;53.15;101083.97;4993318;28;20034;-78
2022/07/03 08:20:21;;;;;;;9.77;3.63;;;;;;;28.13;54.46;101102.41;4992977;28;20026;-77
2022/07/03 08:22:46;;;;;;;8.40;2.72;;;;;;;28.14;52.28;101098.56;4992912;28;20096;-78
2022/07/03 08:25:11;;;;;;;8.07;3.70;;;;;;;28.24;54.14;101096.13;4991429;28;20026;-78
2022/07/03 08:27:37;;;;;;;16.63;4.55;;;;;;;28.10;56.26;101096.25;4992510;28;20089;-77
2022/07/03 08:30:03;;;;;;;11.02;3.70;;;;;;;28.12;55.82;101095.19;4992639;28;20038;-78
2022/07/03 08:32:29;;;;;;;9.45;3.35;;;;;;;28.28;55.16;101100.97;4992836;28;20049;-77
2022/07/03 08:34:54;;;;;;;5.15;2.40;;;;;;;28.36;54.30;101091.50;4992810;28;20456;-78
2022/07/03 08:37:19;;;;;;;6.57;2.95;;;;;;;28.39;54.61;101096.59;4993075;28;20036;-77
2022/07/03 08:39:45;;;;;;;9.23;3.30;;;;;;;28.47;53.18;101090.78;4993036;28;20026;-77
2022/07/03 08:42:15;;;;;;;8.50;3.63;;;;;;;28.56;52.77;101094.91;4992743;28;20033;-78
2022/07/03 08:44:43;;;;;;;14.35;2.75;;;;;;;28.49;52.35;101103.28;4992750;28;20034;-76
2022/07/03 08:47:11;;;;;;;4.90;2.72;;;;;;;28.50;53.13;101090.31;4992543;28;20420;-77
2022/07/03 08:49:37;;;;;;;11.52;3.22;;;;;;;28.57;54.61;101099.34;4992465;28;20065;-76
2022/07/03 08:52:07;;;;;;;6.63;2.72;;;;;;;28.51;55.42;101092.81;4992493;28;20038;-77
2022/07/03 08:54:33;;;;;;;5.93;3.13;;;;;;;28.61;54.09;101106.13;4992581;28;20733;-76
2022/07/03 08:57:00;;;;;;;8.98;3.47;;;;;;;28.60;54.56;101099.75;4992793;28;20038;-76
2022/07/03 08:59:40;;;;;;;6.68;2.72;;;;;;;28.62;53.71;101096.75;4992953;28;20081;-77
2022/07/03 09:02:06;;;;;;;5.90;3.00;;;;;;;28.62;53.91;101094.81;4990892;28;20121;-77
2022/07/03 09:04:32;;;;;;;6.13;2.90;;;;;;;28.59;54.44;101100.81;4992013;28;20077;-78
2022/07/03 09:06:59;;;;;;;10.25;2.45;;;;;;;28.51;54.56;101095.59;4992062;28;20030;-77
2022/07/03 09:09:24;;;;;;;3.97;2.45;;;;;;;28.56;53.07;101097.69;4992266;28;20457;-77
2022/07/03 09:11:51;;;;;;;7.32;4.13;;;;;;;28.58;49.82;101104.69;4992194;28;20034;-76
2022/07/03 09:14:16;;;;;;;8.93;2.83;;;;;;;28.51;52.11;101089.22;4992059;28;20030;-77
2022/07/03 09:16:42;;;;;;;13.30;3.13;;;;;;;28.60;50.99;101112.72;4993368;28;20030;-77
2022/07/03 09:19:08;;;;;;;11.90;3.10;;;;;;;28.56;51.06;101114.28;4992205;28;20068;-77
2022/07/03 09:21:40;;;;;;;20.83;3.17;;;;;;;28.56;52.80;101114.28;4992880;28;20026;-77
2022/07/03 09:24:08;;;;;;;6.07;2.42;;;;;;;28.68;47.40;101118.00;4992083;28;20072;-77
2022/07/03 09:26:34;;;;;;;6.07;3.10;;;;;;;28.79;47.28;101108.91;4991902;28;20026;-78
2022/07/03 09:29:00;;;;;;;6.88;2.72;;;;;;;28.79;41.76;101117.22;4990823;28;20061;-77
2022/07/03 09:31:27;;;;;;;3.55;2.22;;;;;;;28.83;43.12;101106.53;4992284;28;20509;-76
2022/07/03 09:34:01;;;;;;;17.08;3.25;;;;;;;29.00;43.76;101104.81;4991838;28;20418;-78
2022/07/03 09:36:45;;;;;;;4.78;2.38;;;;;;;29.06;42.85;101104.72;4992192;28;20041;-80
2022/07/03 09:39:11;;;;;;;4.95;2.83;;;;;;;29.12;42.21;101098.22;4992196;28;20034;-76
2022/07/03 09:41:57;;;;;;;36.47;5.53;;;;;;;29.14;42.28;101106.31;4992189;28;20433;-78
2022/07/03 09:44:37;;;;;;;9.68;2.30;;;;;;;28.95;41.86;101097.22;4993230;28;20093;-77
2022/07/03 09:47:23;;;;;;;3.53;2.08;;;;;;;29.10;43.40;101102.31;4993003;28;20034;-76
2022/07/03 09:49:56;;;;;;;11.05;2.35;;;;;;;29.14;40.03;101100.78;4992971;28;20050;-77
2022/07/03 09:52:28;;;;;;;15.18;3.20;;;;;;;29.12;39.26;101108.47;4992399;28;20088;-77
2022/07/03 09:54:54;;;;;;;8.15;3.35;;;;;;;28.95;38.52;101102.75;4991797;28;20034;-77
2022/07/03 09:57:20;;;;;;;10.30;3.15;;;;;;;29.00;40.99;101102.88;4991935;28;20460;-77
2022/07/03 09:59:45;;;;;;;7.85;2.72;;;;;;;28.91;40.46;101089.59;4991800;28;20034;-77
2022/07/03 10:02:11;;;;;;;5.50;2.95;;;;;;;28.99;40.01;101092.03;4991725;28;20034;-78
2022/07/03 10:04:36;;;;;;;6.63;2.17;;;;;;;29.00;39.07;101094.56;4974251;28;20095;-75
2022/07/03 10:07:03;;;;;;;3.08;2.33;;;;;;;29.02;40.08;101081.31;4991645;28;20050;-78
2022/07/03 10:09:31;;;;;;;12.63;3.83;;;;;;;29.13;40.09;101094.38;4991887;28;20034;-77
2022/07/03 10:11:58;;;;;;;91.55;8.15;;;;;;;29.24;40.34;101094.69;4991810;28;20037;-76
2022/07/03 10:14:31;;;;;;;4.72;2.03;;;;;;;29.30;38.60;101089.03;4992705;28;20026;-90
2022/07/03 10:16:59;;;;;;;5.22;2.38;;;;;;;29.43;39.41;101082.44;4993589;28;20113;-88
2022/07/03 10:19:29;;;;;;;13.43;2.72;;;;;;;29.59;39.33;101095.63;4994160;28;20027;-85
2022/07/03 10:21:57;;;;;;;9.57;2.53;;;;;;;29.56;36.71;101066.47;4994014;28;20030;-87
2022/07/03 10:24:24;;;;;;;16.13;2.83;;;;;;;29.74;38.03;101081.31;4975571;28;20571;-87
2022/07/03 10:26:52;;;;;;;3.92;2.33;;;;;;;29.77;38.62;101072.50;4994044;28;20061;-89
2022/07/03 10:29:20;;;;;;;3.47;1.80;;;;;;;29.75;37.69;101069.13;4994989;28;20030;-89
2022/07/03 10:31:46;;;;;;;8.93;2.10;;;;;;;29.81;38.39;101071.78;5000017;28;20116;-88
2022/07/03 10:34:16;;;;;;;4.43;2.28;;;;;;;29.83;35.92;101061.31;5004224;28;20026;-88
2022/07/03 10:36:43;;;;;;;3.60;2.30;;;;;;;29.85;35.32;101064.69;5006787;28;20109;-89
2022/07/03 10:39:17;;;;;;;8.88;2.63;;;;;;;29.73;35.42;101061.03;4998534;28;20114;-89
2022/07/03 10:44:47;;;;;;;7.53;2.50;;;;;;;29.86;38.78;101060.84;5018006;28;20040;-84
2022/07/03 10:47:47;;;;;;;3.70;2.47;;;;;;;30.06;39.38;101061.31;5017035;28;20057;-86
2022/07/03 10:50:17;;;;;;;15.32;3.17;;;;;;;30.18;37.34;101058.56;5007231;28;20137;-86
2022/07/03 10:52:43;;;;;;;4.20;2.22;;;;;;;29.98;36.23;101046.97;4997719;28;20030;-85
2022/07/03 10:55:11;;;;;;;19.00;2.50;;;;;;;30.16;36.75;101047.69;4997168;28;20022;-87
2022/07/03 10:57:37;;;;;;;48.35;5.47;;;;;;;30.35;37.83;101053.94;4979497;28;20029;-88
2022/07/03 11:00:08;;;;;;;13.48;2.55;;;;;;;30.36;37.78;101061.19;4995963;28;20038;-86
2022/07/03 11:02:35;;;;;;;6.93;2.47;;;;;;;30.24;37.54;101041.75;4996323;28;20212;-89
2022/07/03 11:05:01;;;;;;;8.10;2.63;;;;;;;30.49;37.64;101054.50;4979135;28;20030;-88
2022/07/03 11:07:33;;;;;;;10.10;2.85;;;;;;;30.46;37.61;101049.47;4980002;28;20053;-89
2022/07/03 11:10:10;;;;;;;7.82;2.67;;;;;;;30.56;35.56;101050.53;5005649;28;20034;-87
2022/07/03 11:13:01;;;;;;;14.25;2.60;;;;;;;30.65;34.69;101048.19;5000908;28;20026;-87
2022/07/03 11:15:27;;;;;;;7.05;2.53;;;;;;;30.50;36.04;101048.72;4997141;28;20030;-83
2022/07/03 11:18:04;;;;;;;6.53;2.83;;;;;;;30.44;33.79;101046.09;4995833;28;20041;-85
2022/07/03 11:20:31;;;;;;;20.63;2.85;;;;;;;30.23;34.61;101039.22;4995617;28;20480;-82
2022/07/03 11:23:14;;;;;;;3.78;2.38;;;;;;;30.23;35.74;101040.06;4996306;28;20612;-85
2022/07/03 11:25:44;;;;;;;10.25;2.38;;;;;;;30.16;34.66;101028.25;4996244;28;20030;-84
2022/07/03 11:28:31;;;;;;;12.38;3.10;;;;;;;30.42;34.30;101042.72;4995716;28;20026;-87
2022/07/03 11:33:46;;;;;;;7.85;2.88;;;;;;;30.45;33.54;101045.00;4995638;28;20037;-87
2022/07/03 11:36:14;;;;;;;12.50;2.60;;;;;;;30.45;34.53;101036.69;4995456;28;20030;-87
2022/07/03 11:38:40;;;;;;;9.73;2.92;;;;;;;30.50;33.14;101034.00;4995095;28;20034;-86
2022/07/03 11:41:09;;;;;;;12.77;2.50;;;;;;;30.41;31.70;101029.94;4995231;28;20072;-85